sensor_id;sensor_type;location;lat;lon;timestamp;P1;P2;P0
72031;PMS5003;49185;42.320;23.198;2024-02-04T00:01:38;2626.67;2626.67;2626.67
72031;PMS5003;49185;42.320;23.198;2024-02-04T00:04:04;2636.00;2636.00;2636.00
72031;PMS5003;49185;42.320;23.198;2024-02-04T00:06:29;2624.00;2624.00;2624.00
72031;PMS5003;49185;42.320;23.198;2024-02-04T00:08:55;2634.00;2634.00;2634.00
72031;PMS5003;49185;42.320;23.198;2024-02-04T00:11:20;2626.67;2626.67;2626.67
72031;PMS5003;49185;42.320;23.198;2024-02-04T00:13:46;2639.67;2639.67;2639.67
72031;PMS5003;49185;42.320;23.198;2024-02-04T00:16:11;2637.67;2637.67;2637.67
72031;PMS5003;49185;42.320;23.198;2024-02-04T00:18:36;2627.67;2627.67;2627.67
72031;PMS5003;49185;42.320;23.198;2024-02-04T00:21:02;2629.67;2629.67;2629.67
72031;PMS5003;49185;42.320;23.198;2024-02-04T00:23:27;2629.67;2629.67;2629.67
72031;PMS5003;49185;42.320;23.198;2024-02-04T00:25:52;2641.00;2641.00;2641.00
72031;PMS5003;49185;42.320;23.198;2024-02-04T00:28:18;2632.67;2632.67;2632.67
72031;PMS5003;49185;42.320;23.198;2024-02-04T00:30:43;2634.00;2634.00;2634.00
72031;PMS5003;49185;42.320;23.198;2024-02-04T00:33:09;2637.67;2637.67;2637.67
72031;PMS5003;49185;42.320;23.198;2024-02-04T00:35:34;2641.00;2641.00;2641.00
72031;PMS5003;49185;42.320;23.198;2024-02-04T00:38:00;2654.00;2654.00;2654.00
72031;PMS5003;49185;42.320;23.198;2024-02-04T00:40:25;2658.00;2658.00;2658.00
72031;PMS5003;49185;42.320;23.198;2024-02-04T00:42:50;2658.00;2658.00;2658.00
72031;PMS5003;49185;42.320;23.198;2024-02-04T00:45:16;2654.00;2654.00;2654.00
72031;PMS5003;49185;42.320;23.198;2024-02-04T00:47:41;2647.67;2647.67;2647.67
72031;PMS5003;49185;42.320;23.198;2024-02-04T00:50:07;2655.67;2655.67;2655.67
72031;PMS5003;49185;42.320;23.198;2024-02-04T00:52:32;2668.50;2668.50;2668.50
72031;PMS5003;49185;42.320;23.198;2024-02-04T00:54:58;2654.00;2654.00;2654.00
72031;PMS5003;49185;42.320;23.198;2024-02-04T00:57:23;2664.67;2664.67;2664.67
72031;PMS5003;49185;42.320;23.198;2024-02-04T00:59:48;2654.00;2654.00;2654.00
72031;PMS5003;49185;42.320;23.198;2024-02-04T01:02:14;2658.00;2658.00;2658.00
72031;PMS5003;49185;42.320;23.198;2024-02-04T01:04:39;2671.00;2671.00;2671.00
72031;PMS5003;49185;42.320;23.198;2024-02-04T01:07:05;2673.67;2673.67;2673.67
72031;PMS5003;49185;42.320;23.198;2024-02-04T01:09:30;2677.00;2677.00;2677.00
72031;PMS5003;49185;42.320;23.198;2024-02-04T01:11:55;2663.67;2663.67;2663.67
72031;PMS5003;49185;42.320;23.198;2024-02-04T01:14:21;2675.00;2675.00;2675.00
72031;PMS5003;49185;42.320;23.198;2024-02-04T01:16:46;2677.00;2677.00;2677.00
72031;PMS5003;49185;42.320;23.198;2024-02-04T01:19:12;2661.00;2661.00;2661.00
72031;PMS5003;49185;42.320;23.198;2024-02-04T01:21:37;2658.00;2658.00;2658.00
72031;PMS5003;49185;42.320;23.198;2024-02-04T01:24:03;2656.67;2656.67;2656.67
72031;PMS5003;49185;42.320;23.198;2024-02-04T01:26:28;2661.00;2661.00;2661.00
72031;PMS5003;49185;42.320;23.198;2024-02-04T01:28:53;2680.67;2680.67;2680.67
72031;PMS5003;49185;42.320;23.198;2024-02-04T01:31:19;2682.00;2682.00;2682.00
72031;PMS5003;49185;42.320;23.198;2024-02-04T01:33:44;2668.00;2668.00;2668.00
72031;PMS5003;49185;42.320;23.198;2024-02-04T01:36:10;2678.00;2678.00;2678.00
72031;PMS5003;49185;42.320;23.198;2024-02-04T01:38:35;2691.00;2691.00;2691.00
72031;PMS5003;49185;42.320;23.198;2024-02-04T01:41:00;2680.67;2680.67;2680.67
72031;PMS5003;49185;42.320;23.198;2024-02-04T01:43:26;2684.00;2684.00;2684.00
72031;PMS5003;49185;42.320;23.198;2024-02-04T01:45:51;2687.00;2687.00;2687.00
72031;PMS5003;49185;42.320;23.198;2024-02-04T01:48:17;2701.00;2701.00;2701.00
72031;PMS5003;49185;42.320;23.198;2024-02-04T01:50:42;2688.33;2688.33;2688.33
72031;PMS5003;49185;42.320;23.198;2024-02-04T01:53:09;2706.50;2706.50;2706.50
72031;PMS5003;49185;42.320;23.198;2024-02-04T01:55:35;2706.50;2706.50;2706.50
72031;PMS5003;49185;42.320;23.198;2024-02-04T01:58:01;2701.50;2701.50;2701.50
72031;PMS5003;49185;42.320;23.198;2024-02-04T02:00:27;2697.50;2697.50;2697.50
72031;PMS5003;49185;42.320;23.198;2024-02-04T02:02:53;2724.50;2724.50;2724.50
72031;PMS5003;49185;42.320;23.198;2024-02-04T02:05:20;2726.00;2726.00;2726.00
72031;PMS5003;49185;42.320;23.198;2024-02-04T02:07:46;2720.33;2720.33;2720.33
72031;PMS5003;49185;42.320;23.198;2024-02-04T02:10:11;2734.33;2734.33;2734.33
72031;PMS5003;49185;42.320;23.198;2024-02-04T02:12:45;2746.00;2746.00;2746.00
72031;PMS5003;49185;42.320;23.198;2024-02-04T02:15:17;2753.00;2753.00;2753.00
72031;PMS5003;49185;42.320;23.198;2024-02-04T02:18:02;2757.00;2757.00;2757.00
72031;PMS5003;49185;42.320;23.198;2024-02-04T02:20:34;2760.50;2760.50;2760.50
72031;PMS5003;49185;42.320;23.198;2024-02-04T02:23:27;2749.50;2749.50;2749.50
72031;PMS5003;49185;42.320;23.198;2024-02-04T02:25:55;2760.50;2760.50;2760.50
72031;PMS5003;49185;42.320;23.198;2024-02-04T02:28:22;2758.50;2758.50;2758.50
72031;PMS5003;49185;42.320;23.198;2024-02-04T02:30:49;2763.67;2763.67;2763.67
72031;PMS5003;49185;42.320;23.198;2024-02-04T02:33:15;2768.00;2768.00;2768.00
72031;PMS5003;49185;42.320;23.198;2024-02-04T02:35:40;2766.33;2766.33;2766.33
72031;PMS5003;49185;42.320;23.198;2024-02-04T02:38:26;2760.50;2760.50;2760.50
72031;PMS5003;49185;42.320;23.198;2024-02-04T02:40:59;2753.00;2753.00;2753.00
72031;PMS5003;49185;42.320;23.198;2024-02-04T02:43:28;2749.50;2749.50;2749.50
72031;PMS5003;49185;42.320;23.198;2024-02-04T02:45:55;2744.50;2744.50;2744.50
72031;PMS5003;49185;42.320;23.198;2024-02-04T02:48:21;2729.50;2729.50;2729.50
72031;PMS5003;49185;42.320;23.198;2024-02-04T02:50:47;2704.50;2704.50;2704.50
72031;PMS5003;49185;42.320;23.198;2024-02-04T02:53:12;2727.33;2727.33;2727.33
72031;PMS5003;49185;42.320;23.198;2024-02-04T02:55:38;2745.33;2745.33;2745.33
72031;PMS5003;49185;42.320;23.198;2024-02-04T02:58:03;2738.33;2738.33;2738.33
72031;PMS5003;49185;42.320;23.198;2024-02-04T03:00:28;2745.33;2745.33;2745.33
72031;PMS5003;49185;42.320;23.198;2024-02-04T03:02:54;2731.33;2731.33;2731.33
72031;PMS5003;49185;42.320;23.198;2024-02-04T03:05:19;2753.67;2753.67;2753.67
72031;PMS5003;49185;42.320;23.198;2024-02-04T03:07:45;2761.00;2761.00;2761.00
72031;PMS5003;49185;42.320;23.198;2024-02-04T03:10:10;2764.67;2764.67;2764.67
72031;PMS5003;49185;42.320;23.198;2024-02-04T03:12:36;2752.67;2752.67;2752.67
72031;PMS5003;49185;42.320;23.198;2024-02-04T03:15:01;2789.67;2789.67;2789.67
72031;PMS5003;49185;42.320;23.198;2024-02-04T03:17:27;2769.33;2769.33;2769.33
72031;PMS5003;49185;42.320;23.198;2024-02-04T03:19:52;2759.67;2759.67;2759.67
72031;PMS5003;49185;42.320;23.198;2024-02-04T03:22:17;2745.33;2745.33;2745.33
72031;PMS5003;49185;42.320;23.198;2024-02-04T03:24:43;2752.67;2752.67;2752.67
72031;PMS5003;49185;42.320;23.198;2024-02-04T03:27:08;2748.67;2748.67;2748.67
72031;PMS5003;49185;42.320;23.198;2024-02-04T03:29:34;2738.50;2738.50;2738.50
72031;PMS5003;49185;42.320;23.198;2024-02-04T03:31:59;2737.00;2737.00;2737.00
72031;PMS5003;49185;42.320;23.198;2024-02-04T03:34:25;2731.33;2731.33;2731.33
72031;PMS5003;49185;42.320;23.198;2024-02-04T03:36:50;2727.33;2727.33;2727.33
72031;PMS5003;49185;42.320;23.198;2024-02-04T03:39:15;2738.33;2738.33;2738.33
72031;PMS5003;49185;42.320;23.198;2024-02-04T03:41:41;2738.33;2738.33;2738.33
72031;PMS5003;49185;42.320;23.198;2024-02-04T03:44:06;2741.67;2741.67;2741.67
72031;PMS5003;49185;42.320;23.198;2024-02-04T03:46:31;2744.33;2744.33;2744.33
72031;PMS5003;49185;42.320;23.198;2024-02-04T03:48:57;2745.33;2745.33;2745.33
72031;PMS5003;49185;42.320;23.198;2024-02-04T03:51:22;2731.33;2731.33;2731.33
72031;PMS5003;49185;42.320;23.198;2024-02-04T03:53:48;2745.33;2745.33;2745.33
72031;PMS5003;49185;42.320;23.198;2024-02-04T03:56:15;2744.50;2744.50;2744.50
72031;PMS5003;49185;42.320;23.198;2024-02-04T03:58:41;2756.33;2756.33;2756.33
72031;PMS5003;49185;42.320;23.198;2024-02-04T04:01:09;2745.33;2745.33;2745.33
72031;PMS5003;49185;42.320;23.198;2024-02-04T04:03:35;2762.00;2762.00;2762.00
72031;PMS5003;49185;42.320;23.198;2024-02-04T04:06:00;2759.67;2759.67;2759.67
72031;PMS5003;49185;42.320;23.198;2024-02-04T04:08:25;2750.00;2750.00;2750.00
72031;PMS5003;49185;42.320;23.198;2024-02-04T04:10:51;2748.67;2748.67;2748.67
72031;PMS5003;49185;42.320;23.198;2024-02-04T04:13:16;2762.33;2762.33;2762.33
72031;PMS5003;49185;42.320;23.198;2024-02-04T04:15:42;2752.67;2752.67;2752.67
72031;PMS5003;49185;42.320;23.198;2024-02-04T04:18:07;2752.67;2752.67;2752.67
72031;PMS5003;49185;42.320;23.198;2024-02-04T04:20:32;2755.33;2755.33;2755.33
72031;PMS5003;49185;42.320;23.198;2024-02-04T04:22:58;2733.33;2733.33;2733.33
72031;PMS5003;49185;42.320;23.198;2024-02-04T04:25:23;2745.33;2745.33;2745.33
72031;PMS5003;49185;42.320;23.198;2024-02-04T04:27:48;2731.33;2731.33;2731.33
72031;PMS5003;49185;42.320;23.198;2024-02-04T04:30:14;2723.33;2723.33;2723.33
72031;PMS5003;49185;42.320;23.198;2024-02-04T04:32:39;2716.33;2716.33;2716.33
72031;PMS5003;49185;42.320;23.198;2024-02-04T04:35:05;2727.33;2727.33;2727.33
72031;PMS5003;49185;42.320;23.198;2024-02-04T04:37:30;2734.33;2734.33;2734.33
72031;PMS5003;49185;42.320;23.198;2024-02-04T04:39:55;2717.67;2717.67;2717.67
72031;PMS5003;49185;42.320;23.198;2024-02-04T04:42:21;2719.00;2719.00;2719.00
72031;PMS5003;49185;42.320;23.198;2024-02-04T04:44:46;2734.33;2734.33;2734.33
72031;PMS5003;49185;42.320;23.198;2024-02-04T04:47:12;2738.33;2738.33;2738.33
72031;PMS5003;49185;42.320;23.198;2024-02-04T04:49:37;2727.33;2727.33;2727.33
72031;PMS5003;49185;42.320;23.198;2024-02-04T04:52:03;2738.33;2738.33;2738.33
72031;PMS5003;49185;42.320;23.198;2024-02-04T04:54:28;2731.50;2731.50;2731.50
72031;PMS5003;49185;42.320;23.198;2024-02-04T04:56:54;2727.33;2727.33;2727.33
72031;PMS5003;49185;42.320;23.198;2024-02-04T04:59:19;2731.33;2731.33;2731.33
72031;PMS5003;49185;42.320;23.198;2024-02-04T05:01:45;2734.33;2734.33;2734.33
72031;PMS5003;49185;42.320;23.198;2024-02-04T05:04:11;2753.00;2753.00;2753.00
72031;PMS5003;49185;42.320;23.198;2024-02-04T05:06:36;2741.67;2741.67;2741.67
72031;PMS5003;49185;42.320;23.198;2024-02-04T05:09:02;2758.33;2758.33;2758.33
72031;PMS5003;49185;42.320;23.198;2024-02-04T05:11:27;2763.67;2763.67;2763.67
72031;PMS5003;49185;42.320;23.198;2024-02-04T05:13:52;2767.33;2767.33;2767.33
72031;PMS5003;49185;42.320;23.198;2024-02-04T05:16:18;2768.33;2768.33;2768.33
72031;PMS5003;49185;42.320;23.198;2024-02-04T05:18:43;2762.33;2762.33;2762.33
72031;PMS5003;49185;42.320;23.198;2024-02-04T05:21:09;2776.00;2776.00;2776.00
72031;PMS5003;49185;42.320;23.198;2024-02-04T05:23:36;2778.67;2778.67;2778.67
72031;PMS5003;49185;42.320;23.198;2024-02-04T05:26:04;2781.00;2781.00;2781.00
72031;PMS5003;49185;42.320;23.198;2024-02-04T05:28:30;2770.00;2770.00;2770.00
72031;PMS5003;49185;42.320;23.198;2024-02-04T05:30:56;2770.00;2770.00;2770.00
72031;PMS5003;49185;42.320;23.198;2024-02-04T05:33:21;2774.67;2774.67;2774.67
72031;PMS5003;49185;42.320;23.198;2024-02-04T05:35:47;2778.67;2778.67;2778.67
72031;PMS5003;49185;42.320;23.198;2024-02-04T05:38:12;2773.33;2773.33;2773.33
72031;PMS5003;49185;42.320;23.198;2024-02-04T05:40:38;2763.67;2763.67;2763.67
72031;PMS5003;49185;42.320;23.198;2024-02-04T05:43:03;2776.00;2776.00;2776.00
72031;PMS5003;49185;42.320;23.198;2024-02-04T05:45:28;2781.67;2781.67;2781.67
72031;PMS5003;49185;42.320;23.198;2024-02-04T05:47:54;2776.00;2776.00;2776.00
72031;PMS5003;49185;42.320;23.198;2024-02-04T05:50:19;2789.67;2789.67;2789.67
72031;PMS5003;49185;42.320;23.198;2024-02-04T05:52:45;2793.00;2793.00;2793.00
72031;PMS5003;49185;42.320;23.198;2024-02-04T05:55:10;2776.00;2776.00;2776.00
72031;PMS5003;49185;42.320;23.198;2024-02-04T05:57:35;2784.33;2784.33;2784.33
72031;PMS5003;49185;42.320;23.198;2024-02-04T06:00:01;2793.00;2793.00;2793.00
72031;PMS5003;49185;42.320;23.198;2024-02-04T06:02:26;2791.67;2791.67;2791.67
72031;PMS5003;49185;42.320;23.198;2024-02-04T06:04:52;2789.67;2789.67;2789.67
72031;PMS5003;49185;42.320;23.198;2024-02-04T06:07:17;2784.33;2784.33;2784.33
72031;PMS5003;49185;42.320;23.198;2024-02-04T06:09:42;2781.67;2781.67;2781.67
72031;PMS5003;49185;42.320;23.198;2024-02-04T06:12:08;2774.67;2774.67;2774.67
72031;PMS5003;49185;42.320;23.198;2024-02-04T06:14:33;2767.33;2767.33;2767.33
72031;PMS5003;49185;42.320;23.198;2024-02-04T06:16:59;2762.33;2762.33;2762.33
72031;PMS5003;49185;42.320;23.198;2024-02-04T06:19:24;2750.00;2750.00;2750.00
72031;PMS5003;49185;42.320;23.198;2024-02-04T06:21:49;2759.67;2759.67;2759.67
72031;PMS5003;49185;42.320;23.198;2024-02-04T06:24:15;2745.33;2745.33;2745.33
72031;PMS5003;49185;42.320;23.198;2024-02-04T06:26:40;2752.67;2752.67;2752.67
72031;PMS5003;49185;42.320;23.198;2024-02-04T06:29:05;2755.33;2755.33;2755.33
72031;PMS5003;49185;42.320;23.198;2024-02-04T06:31:31;2755.33;2755.33;2755.33
72031;PMS5003;49185;42.320;23.198;2024-02-04T06:33:56;2752.67;2752.67;2752.67
72031;PMS5003;49185;42.320;23.198;2024-02-04T06:36:22;2730.00;2730.00;2730.00
72031;PMS5003;49185;42.320;23.198;2024-02-04T06:38:47;2752.67;2752.67;2752.67
72031;PMS5003;49185;42.320;23.198;2024-02-04T06:41:13;2756.33;2756.33;2756.33
72031;PMS5003;49185;42.320;23.198;2024-02-04T06:43:38;2756.33;2756.33;2756.33
72031;PMS5003;49185;42.320;23.198;2024-02-04T06:46:04;2759.00;2759.00;2759.00
72031;PMS5003;49185;42.320;23.198;2024-02-04T06:48:29;2757.33;2757.33;2757.33
72031;PMS5003;49185;42.320;23.198;2024-02-04T06:50:55;2755.33;2755.33;2755.33
72031;PMS5003;49185;42.320;23.198;2024-02-04T06:53:20;2745.33;2745.33;2745.33
72031;PMS5003;49185;42.320;23.198;2024-02-04T06:55:46;2759.67;2759.67;2759.67
72031;PMS5003;49185;42.320;23.198;2024-02-04T06:58:11;2750.00;2750.00;2750.00
72031;PMS5003;49185;42.320;23.198;2024-02-04T07:00:36;2744.33;2744.33;2744.33
72031;PMS5003;49185;42.320;23.198;2024-02-04T07:03:02;2755.33;2755.33;2755.33
72031;PMS5003;49185;42.320;23.198;2024-02-04T07:05:27;2770.67;2770.67;2770.67
72031;PMS5003;49185;42.320;23.198;2024-02-04T07:07:53;2757.67;2757.67;2757.67
72031;PMS5003;49185;42.320;23.198;2024-02-04T07:10:18;2772.00;2772.00;2772.00
72031;PMS5003;49185;42.320;23.198;2024-02-04T07:12:44;2783.00;2783.00;2783.00
72031;PMS5003;49185;42.320;23.198;2024-02-04T07:15:09;2789.67;2789.67;2789.67
72031;PMS5003;49185;42.320;23.198;2024-02-04T07:17:35;2789.67;2789.67;2789.67
72031;PMS5003;49185;42.320;23.198;2024-02-04T07:20:04;2809.00;2809.00;2809.00
72031;PMS5003;49185;42.320;23.198;2024-02-04T07:22:29;2816.50;2816.50;2816.50
72031;PMS5003;49185;42.320;23.198;2024-02-04T07:24:55;2797.00;2797.00;2797.00
72031;PMS5003;49185;42.320;23.198;2024-02-04T07:27:20;2816.00;2816.00;2816.00
72031;PMS5003;49185;42.320;23.198;2024-02-04T07:29:46;2818.67;2818.67;2818.67
72031;PMS5003;49185;42.320;23.198;2024-02-04T07:32:11;2808.00;2808.00;2808.00
72031;PMS5003;49185;42.320;23.198;2024-02-04T07:34:36;2812.00;2812.00;2812.00
72031;PMS5003;49185;42.320;23.198;2024-02-04T07:37:02;2816.00;2816.00;2816.00
72031;PMS5003;49185;42.320;23.198;2024-02-04T07:39:27;2843.00;2843.00;2843.00
72031;PMS5003;49185;42.320;23.198;2024-02-04T07:41:53;2835.00;2835.00;2835.00
72031;PMS5003;49185;42.320;23.198;2024-02-04T07:44:18;2809.33;2809.33;2809.33
72031;PMS5003;49185;42.320;23.198;2024-02-04T07:46:43;2873.00;2873.00;2873.00
72031;PMS5003;49185;42.320;23.198;2024-02-04T07:49:09;2878.33;2878.33;2878.33
72031;PMS5003;49185;42.320;23.198;2024-02-04T07:51:34;2874.33;2874.33;2874.33
72031;PMS5003;49185;42.320;23.198;2024-02-04T07:54:00;2898.33;2898.33;2898.33
72031;PMS5003;49185;42.320;23.198;2024-02-04T07:56:25;2890.33;2890.33;2890.33
72031;PMS5003;49185;42.320;23.198;2024-02-04T07:58:50;2906.33;2906.33;2906.33
72031;PMS5003;49185;42.320;23.198;2024-02-04T08:01:17;2925.33;2925.33;2925.33
72031;PMS5003;49185;42.320;23.198;2024-02-04T08:03:43;2952.50;2952.50;2952.50
72031;PMS5003;49185;42.320;23.198;2024-02-04T08:06:09;2951.67;2951.67;2951.67
72031;PMS5003;49185;42.320;23.198;2024-02-04T08:08:34;2937.33;2937.33;2937.33
72031;PMS5003;49185;42.320;23.198;2024-02-04T08:10:59;2941.33;2941.33;2941.33
72031;PMS5003;49185;42.320;23.198;2024-02-04T08:13:25;2930.67;2930.67;2930.67
72031;PMS5003;49185;42.320;23.198;2024-02-04T08:15:50;2947.67;2947.67;2947.67
72031;PMS5003;49185;42.320;23.198;2024-02-04T08:18:15;2951.67;2951.67;2951.67
72031;PMS5003;49185;42.320;23.198;2024-02-04T08:20:41;2960.00;2960.00;2960.00
72031;PMS5003;49185;42.320;23.198;2024-02-04T08:23:06;2981.00;2981.00;2981.00
72031;PMS5003;49185;42.320;23.198;2024-02-04T08:25:32;2995.67;2995.67;2995.67
72031;PMS5003;49185;42.320;23.198;2024-02-04T08:27:58;3002.33;3002.33;3002.33
72031;PMS5003;49185;42.320;23.198;2024-02-04T08:30:23;2999.00;2999.00;2999.00
72031;PMS5003;49185;42.320;23.198;2024-02-04T08:32:48;3024.33;3024.33;3024.33
72031;PMS5003;49185;42.320;23.198;2024-02-04T08:35:14;3031.67;3031.67;3031.67
72031;PMS5003;49185;42.320;23.198;2024-02-04T08:37:39;3002.33;3002.33;3002.33
72031;PMS5003;49185;42.320;23.198;2024-02-04T08:40:05;3033.33;3033.33;3033.33
72031;PMS5003;49185;42.320;23.198;2024-02-04T08:42:31;3036.00;3036.00;3036.00
72031;PMS5003;49185;42.320;23.198;2024-02-04T08:44:57;3002.33;3002.33;3002.33
72031;PMS5003;49185;42.320;23.198;2024-02-04T08:47:22;3020.33;3020.33;3020.33
72031;PMS5003;49185;42.320;23.198;2024-02-04T08:49:48;3029.00;3029.00;3029.00
72031;PMS5003;49185;42.320;23.198;2024-02-04T08:52:13;3055.33;3055.33;3055.33
72031;PMS5003;49185;42.320;23.198;2024-02-04T08:54:38;3037.33;3037.33;3037.33
72031;PMS5003;49185;42.320;23.198;2024-02-04T08:57:04;3046.33;3046.33;3046.33
72031;PMS5003;49185;42.320;23.198;2024-02-04T08:59:29;2979.67;2979.67;2979.67
72031;PMS5003;49185;42.320;23.198;2024-02-04T09:01:55;3096.67;3096.67;3096.67
72031;PMS5003;49185;42.320;23.198;2024-02-04T09:04:20;3072.00;3072.00;3072.00
72031;PMS5003;49185;42.320;23.198;2024-02-04T09:06:46;3108.33;3108.33;3108.33
72031;PMS5003;49185;42.320;23.198;2024-02-04T09:09:11;3090.33;3090.33;3090.33
72031;PMS5003;49185;42.320;23.198;2024-02-04T09:11:36;3130.67;3130.67;3130.67
72031;PMS5003;49185;42.320;23.198;2024-02-04T09:14:02;3129.00;3129.00;3129.00
72031;PMS5003;49185;42.320;23.198;2024-02-04T09:16:27;3096.67;3096.67;3096.67
72031;PMS5003;49185;42.320;23.198;2024-02-04T09:18:53;3124.00;3124.00;3124.00
72031;PMS5003;49185;42.320;23.198;2024-02-04T09:21:18;3124.00;3124.00;3124.00
72031;PMS5003;49185;42.320;23.198;2024-02-04T09:23:44;3134.00;3134.00;3134.00
72031;PMS5003;49185;42.320;23.198;2024-02-04T09:26:09;3102.67;3102.67;3102.67
72031;PMS5003;49185;42.320;23.198;2024-02-04T09:28:34;3105.67;3105.67;3105.67
72031;PMS5003;49185;42.320;23.198;2024-02-04T09:31:00;3101.00;3101.00;3101.00
72031;PMS5003;49185;42.320;23.198;2024-02-04T09:33:25;3045.33;3045.33;3045.33
72031;PMS5003;49185;42.320;23.198;2024-02-04T09:35:51;3084.33;3084.33;3084.33
72031;PMS5003;49185;42.320;23.198;2024-02-04T09:38:16;3165.67;3165.67;3165.67
72031;PMS5003;49185;42.320;23.198;2024-02-04T09:40:42;3164.00;3164.00;3164.00
72031;PMS5003;49185;42.320;23.198;2024-02-04T09:43:07;3170.50;3170.50;3170.50
72031;PMS5003;49185;42.320;23.198;2024-02-04T09:45:33;3119.67;3119.67;3119.67
72031;PMS5003;49185;42.320;23.198;2024-02-04T09:48:00;3141.50;3141.50;3141.50
72031;PMS5003;49185;42.320;23.198;2024-02-04T09:50:26;3148.50;3148.50;3148.50
72031;PMS5003;49185;42.320;23.198;2024-02-04T09:52:52;3184.67;3184.67;3184.67
72031;PMS5003;49185;42.320;23.198;2024-02-04T09:55:23;3187.00;3187.00;3187.00
72031;PMS5003;49185;42.320;23.198;2024-02-04T09:57:50;3194.50;3194.50;3194.50
72031;PMS5003;49185;42.320;23.198;2024-02-04T10:00:17;3204.00;3204.00;3204.00
72031;PMS5003;49185;42.320;23.198;2024-02-04T10:02:44;3192.00;3192.00;3192.00
72031;PMS5003;49185;42.320;23.198;2024-02-04T10:05:10;3209.00;3209.00;3209.00
72031;PMS5003;49185;42.320;23.198;2024-02-04T10:07:35;3225.67;3225.67;3225.67
72031;PMS5003;49185;42.320;23.198;2024-02-04T10:10:01;3204.50;3204.50;3204.50
72031;PMS5003;49185;42.320;23.198;2024-02-04T10:12:26;3264.33;3264.33;3264.33
72031;PMS5003;49185;42.320;23.198;2024-02-04T10:14:52;3229.00;3229.00;3229.00
72031;PMS5003;49185;42.320;23.198;2024-02-04T10:17:17;3159.33;3159.33;3159.33
72031;PMS5003;49185;42.320;23.198;2024-02-04T10:19:46;3155.50;3155.50;3155.50
72031;PMS5003;49185;42.320;23.198;2024-02-04T10:22:12;3192.50;3192.50;3192.50
72031;PMS5003;49185;42.320;23.198;2024-02-04T10:24:37;3237.67;3237.67;3237.67
72031;PMS5003;49185;42.320;23.198;2024-02-04T10:27:03;3269.33;3269.33;3269.33
72031;PMS5003;49185;42.320;23.198;2024-02-04T10:29:29;3272.00;3272.00;3272.00
72031;PMS5003;49185;42.320;23.198;2024-02-04T10:31:55;3302.33;3302.33;3302.33
72031;PMS5003;49185;42.320;23.198;2024-02-04T10:34:20;3163.00;3163.00;3163.00
72031;PMS5003;49185;42.320;23.198;2024-02-04T10:36:46;3269.33;3269.33;3269.33
72031;PMS5003;49185;42.320;23.198;2024-02-04T10:39:11;3264.33;3264.33;3264.33
72031;PMS5003;49185;42.320;23.198;2024-02-04T10:41:37;3277.00;3277.00;3277.00
72031;PMS5003;49185;42.320;23.198;2024-02-04T10:44:08;3221.50;3221.50;3221.50
72031;PMS5003;49185;42.320;23.198;2024-02-04T10:46:39;3257.00;3257.00;3257.00
72031;PMS5003;49185;42.320;23.198;2024-02-04T10:49:05;3184.50;3184.50;3184.50
72031;PMS5003;49185;42.320;23.198;2024-02-04T10:51:35;3160.50;3160.50;3160.50
72031;PMS5003;49185;42.320;23.198;2024-02-04T10:54:02;3229.00;3229.00;3229.00
72031;PMS5003;49185;42.320;23.198;2024-02-04T10:59:05;3239.00;3239.00;3239.00
72031;PMS5003;49185;42.320;23.198;2024-02-04T11:01:32;3214.00;3214.00;3214.00
72031;PMS5003;49185;42.320;23.198;2024-02-04T11:03:58;3236.50;3236.50;3236.50
72031;PMS5003;49185;42.320;23.198;2024-02-04T11:06:25;3303.50;3303.50;3303.50
72031;PMS5003;49185;42.320;23.198;2024-02-04T11:08:52;3298.50;3298.50;3298.50
72031;PMS5003;49185;42.320;23.198;2024-02-04T11:11:18;3264.50;3264.50;3264.50
72031;PMS5003;49185;42.320;23.198;2024-02-04T11:13:45;3295.50;3295.50;3295.50
72031;PMS5003;49185;42.320;23.198;2024-02-04T11:16:20;3264.50;3264.50;3264.50
72031;PMS5003;49185;42.320;23.198;2024-02-04T11:19:10;3254.50;3254.50;3254.50
72031;PMS5003;49185;42.320;23.198;2024-02-04T11:22:15;3141.50;3141.50;3141.50
72031;PMS5003;49185;42.320;23.198;2024-02-04T11:24:55;3129.50;3129.50;3129.50
72031;PMS5003;49185;42.320;23.198;2024-02-04T11:27:24;3221.50;3221.50;3221.50
72031;PMS5003;49185;42.320;23.198;2024-02-04T11:29:51;3247.00;3247.00;3247.00
72031;PMS5003;49185;42.320;23.198;2024-02-04T11:32:17;3247.67;3247.67;3247.67
72031;PMS5003;49185;42.320;23.198;2024-02-04T11:34:43;3187.00;3187.00;3187.00
72031;PMS5003;49185;42.320;23.198;2024-02-04T11:37:19;3144.50;3144.50;3144.50
72031;PMS5003;49185;42.320;23.198;2024-02-04T11:39:48;3202.00;3202.00;3202.00
72031;PMS5003;49185;42.320;23.198;2024-02-04T11:42:15;3204.50;3204.50;3204.50
72031;PMS5003;49185;42.320;23.198;2024-02-04T11:44:40;3229.00;3229.00;3229.00
72031;PMS5003;49185;42.320;23.198;2024-02-04T11:47:06;3214.00;3214.00;3214.00
72031;PMS5003;49185;42.320;23.198;2024-02-04T11:49:31;3234.00;3234.00;3234.00
72031;PMS5003;49185;42.320;23.198;2024-02-04T11:51:57;3280.33;3280.33;3280.33
72031;PMS5003;49185;42.320;23.198;2024-02-04T11:54:22;3290.33;3290.33;3290.33
72031;PMS5003;49185;42.320;23.198;2024-02-04T11:56:48;3264.33;3264.33;3264.33
72031;PMS5003;49185;42.320;23.198;2024-02-04T11:59:15;3295.50;3295.50;3295.50
72031;PMS5003;49185;42.320;23.198;2024-02-04T12:01:41;3264.50;3264.50;3264.50
72031;PMS5003;49185;42.320;23.198;2024-02-04T12:04:13;3235.67;3235.67;3235.67
72031;PMS5003;49185;42.320;23.198;2024-02-04T12:06:40;3269.50;3269.50;3269.50
72031;PMS5003;49185;42.320;23.198;2024-02-04T12:09:07;3257.00;3257.00;3257.00
72031;PMS5003;49185;42.320;23.198;2024-02-04T12:11:34;3249.50;3249.50;3249.50
72031;PMS5003;49185;42.320;23.198;2024-02-04T12:14:01;3241.50;3241.50;3241.50
72031;PMS5003;49185;42.320;23.198;2024-02-04T12:16:28;3204.50;3204.50;3204.50
72031;PMS5003;49185;42.320;23.198;2024-02-04T12:18:54;3287.00;3287.00;3287.00
72031;PMS5003;49185;42.320;23.198;2024-02-04T12:21:19;3247.67;3247.67;3247.67
72031;PMS5003;49185;42.320;23.198;2024-02-04T12:23:45;3254.33;3254.33;3254.33
72031;PMS5003;49185;42.320;23.198;2024-02-04T12:26:10;3308.33;3308.33;3308.33
72031;PMS5003;49185;42.320;23.198;2024-02-04T12:28:37;3314.00;3314.00;3314.00